createdAt,value
2022-10-14T00:01:44.750Z,39.08
2022-10-14T00:04:11.373Z,31.27
2022-10-14T00:06:37.951Z,35.88
2022-10-14T00:09:07.418Z,33.85
2022-10-14T00:11:34.984Z,31.83
2022-10-14T00:14:04.700Z,33.55
2022-10-14T00:16:37.231Z,41.22
2022-10-14T00:19:05.354Z,43.65
2022-10-14T00:21:32.767Z,45.40
2022-10-14T00:23:59.349Z,46.67
2022-10-14T00:26:31.190Z,41.30
2022-10-14T00:28:58.851Z,39.85
2022-10-14T00:31:26.146Z,46.10
2022-10-14T00:33:52.888Z,40.30
2022-10-14T00:36:21.065Z,42.33
2022-10-14T00:38:48.970Z,41.88
2022-10-14T00:41:31.653Z,55.45
2022-10-14T00:43:58.229Z,58.70
2022-10-14T00:46:26.833Z,42.13
2022-10-14T00:51:20.191Z,47.08
2022-10-14T00:53:47.320Z,46.90
2022-10-14T00:56:17.146Z,41.78
2022-10-14T00:58:45.132Z,46.20
2022-10-14T01:01:11.707Z,44.25
2022-10-14T01:03:38.272Z,42.05
2022-10-14T01:06:11.821Z,51.78
2022-10-14T01:08:49.300Z,40.55
2022-10-14T01:11:21.110Z,39.53
2022-10-14T01:14:03.905Z,39.15
2022-10-14T01:16:43.952Z,46.53
2022-10-14T01:19:37.797Z,47.45
2022-10-14T01:22:18.702Z,47.78
2022-10-14T01:25:13.245Z,49.05
2022-10-14T01:28:08.812Z,46.58
2022-10-14T01:30:42.386Z,47.58
2022-10-14T01:33:16.019Z,42.47
2022-10-14T01:36:10.022Z,46.15
2022-10-14T01:38:41.192Z,38.80
2022-10-14T01:41:13.822Z,37.30
2022-10-14T01:43:41.328Z,39.40
2022-10-14T01:46:08.261Z,46.60
2022-10-14T01:48:37.215Z,39.72
2022-10-14T01:51:09.485Z,38.35
2022-10-14T01:53:40.240Z,35.92
2022-10-14T01:56:07.676Z,34.25
2022-10-14T01:58:35.771Z,33.92
2022-10-14T02:01:06.714Z,35.70
2022-10-14T02:03:44.267Z,37.33
2022-10-14T02:06:26.041Z,39.97
2022-10-14T02:09:30.563Z,33.92
2022-10-14T02:12:09.260Z,34.10
2022-10-14T02:15:09.630Z,34.20
2022-10-14T02:17:54.397Z,36.28
2022-10-14T02:20:27.098Z,33.28
2022-10-14T02:22:58.916Z,27.77
2022-10-14T02:25:29.899Z,39.80
2022-10-14T02:27:57.903Z,43.17
2022-10-14T02:30:27.862Z,39.15
2022-10-14T02:32:56.347Z,39.42
2022-10-14T02:35:24.297Z,38.10
2022-10-14T02:37:52.058Z,35.80
2022-10-14T02:40:25.726Z,43.03
2022-10-14T02:42:52.343Z,40.10
2022-10-14T02:45:19.153Z,38.28
2022-10-14T02:47:45.741Z,42.22
2022-10-14T02:50:12.575Z,34.67
2022-10-14T02:52:39.215Z,33.92
2022-10-14T02:55:06.133Z,39.28
2022-10-14T02:57:32.713Z,36.53
2022-10-14T02:59:59.285Z,38.85
2022-10-14T03:02:25.988Z,37.28
2022-10-14T03:04:52.684Z,41.17
2022-10-14T03:07:19.266Z,34.35
2022-10-14T03:09:46.135Z,37.28
2022-10-14T03:12:12.679Z,36.22
2022-10-14T03:14:39.349Z,33.45
2022-10-14T03:17:05.876Z,39.30
2022-10-14T03:19:32.463Z,42.85
2022-10-14T03:21:59.030Z,37.83
2022-10-14T03:24:25.656Z,37.70
2022-10-14T03:26:52.229Z,45.58
2022-10-14T03:29:18.771Z,41.78
2022-10-14T03:31:45.379Z,35.55
2022-10-14T03:34:11.919Z,39.55
2022-10-14T03:36:38.510Z,44.13
2022-10-14T03:39:05.109Z,42.10
2022-10-14T03:41:31.723Z,37.60
2022-10-14T03:43:58.456Z,38.45
2022-10-14T03:46:25.019Z,47.50
2022-10-14T03:48:52.681Z,45.13
2022-10-14T03:51:19.604Z,41.03
2022-10-14T03:53:46.162Z,38.53
2022-10-14T03:56:12.782Z,45.38
2022-10-14T03:58:39.337Z,43.55
2022-10-14T04:01:05.935Z,43.13
2022-10-14T04:03:32.501Z,46.67
2022-10-14T04:05:59.080Z,43.83
2022-10-14T04:08:25.705Z,39.90
2022-10-14T04:10:53.883Z,40.25
2022-10-14T04:13:20.644Z,44.17
2022-10-14T04:15:47.445Z,41.08
2022-10-14T04:18:14.100Z,44.95
2022-10-14T04:20:40.655Z,44.08
2022-10-14T04:23:07.578Z,49.47
2022-10-14T04:25:34.162Z,43.83
2022-10-14T04:28:00.727Z,51.92
2022-10-14T04:30:27.347Z,48.63
2022-10-14T04:32:53.934Z,48.85
2022-10-14T04:35:20.479Z,47.70
2022-10-14T04:37:47.028Z,57.65
2022-10-14T04:40:13.644Z,54.28
2022-10-14T04:42:40.256Z,53.13
2022-10-14T04:45:07.302Z,46.08
2022-10-14T04:47:33.892Z,54.50
2022-10-14T04:50:00.465Z,52.30
2022-10-14T04:52:27.177Z,50.53
2022-10-14T04:54:53.740Z,56.17
2022-10-14T04:57:20.286Z,44.78
2022-10-14T04:59:46.885Z,45.65
2022-10-14T05:02:13.467Z,44.75
2022-10-14T05:04:40.232Z,46.88
2022-10-14T05:07:06.788Z,77.53
2022-10-14T05:09:33.583Z,84.50
2022-10-14T05:12:00.147Z,77.47
2022-10-14T05:14:26.925Z,78.75
2022-10-14T05:16:53.629Z,78.72
2022-10-14T05:19:20.376Z,55.80
2022-10-14T05:21:46.969Z,48.15
2022-10-14T05:24:13.667Z,48.55
2022-10-14T05:26:40.212Z,48.30
2022-10-14T05:29:07.137Z,53.45
2022-10-14T05:31:33.796Z,47.72
2022-10-14T05:34:00.360Z,49.42
2022-10-14T05:36:26.911Z,44.72
2022-10-14T05:38:56.441Z,51.85
2022-10-14T05:41:23.127Z,49.00
2022-10-14T05:43:49.864Z,50.08
2022-10-14T05:46:16.435Z,45.95
2022-10-14T05:48:43.067Z,44.47
2022-10-14T05:51:09.929Z,40.05
2022-10-14T05:53:39.146Z,40.25
2022-10-14T05:56:08.144Z,38.45
2022-10-14T05:58:34.762Z,42.22
2022-10-14T06:01:06.209Z,38.97
2022-10-14T06:03:32.910Z,33.47
2022-10-14T06:05:59.570Z,35.17
2022-10-14T06:08:26.683Z,39.88
2022-10-14T06:10:53.541Z,39.50
2022-10-14T06:13:20.623Z,33.47
2022-10-14T06:15:47.229Z,31.98
2022-10-14T06:18:13.779Z,32.05
2022-10-14T06:20:40.377Z,32.35
2022-10-14T06:23:06.999Z,35.47
2022-10-14T06:25:33.557Z,29.48
2022-10-14T06:28:04.059Z,28.77
2022-10-14T06:30:30.825Z,30.02
2022-10-14T06:32:57.424Z,31.52
2022-10-14T06:35:23.988Z,37.17
2022-10-14T06:37:50.588Z,31.40
2022-10-14T06:40:17.231Z,29.60
2022-10-14T06:42:43.878Z,32.40
2022-10-14T06:45:10.640Z,41.92
2022-10-14T06:47:37.172Z,37.22
2022-10-14T06:50:04.198Z,45.67
2022-10-14T06:52:30.787Z,39.95
2022-10-14T06:54:58.236Z,44.67
2022-10-14T06:57:24.896Z,36.85
2022-10-14T06:59:51.542Z,34.95
2022-10-14T07:02:18.123Z,33.85
2022-10-14T07:04:44.652Z,38.75
2022-10-14T07:07:11.206Z,35.75
2022-10-14T07:09:37.765Z,35.33
2022-10-14T07:12:04.474Z,36.08
2022-10-14T07:14:31.020Z,33.25
2022-10-14T07:16:58.342Z,31.67
2022-10-14T07:19:24.899Z,31.85
2022-10-14T07:21:51.424Z,28.85
2022-10-14T07:24:18.024Z,33.72
2022-10-14T07:26:44.676Z,34.33
2022-10-14T07:29:11.267Z,34.35
2022-10-14T07:31:38.173Z,33.28
2022-10-14T07:34:04.791Z,36.70
2022-10-14T07:36:31.512Z,33.45
2022-10-14T07:38:58.112Z,36.67
2022-10-14T07:41:25.573Z,31.05
2022-10-14T07:43:54.428Z,36.15
2022-10-14T07:46:29.595Z,43.60
2022-10-14T07:48:57.971Z,47.03
2022-10-14T07:53:53.148Z,37.75
2022-10-14T07:56:20.416Z,39.17
2022-10-14T07:58:47.097Z,45.53
2022-10-14T08:01:15.617Z,40.80
2022-10-14T08:06:13.200Z,46.95
2022-10-14T08:08:41.065Z,48.25
2022-10-14T08:11:08.963Z,45.75
2022-10-14T08:13:35.904Z,48.60
2022-10-14T08:16:02.993Z,45.67
2022-10-14T08:18:29.770Z,42.33
2022-10-14T08:20:56.380Z,41.20
2022-10-14T08:23:22.968Z,41.97
2022-10-14T08:25:50.056Z,38.75
2022-10-14T08:28:16.801Z,46.78
2022-10-14T08:30:43.382Z,45.60
2022-10-14T08:33:09.999Z,41.85
2022-10-14T08:35:36.551Z,45.08
2022-10-14T08:38:03.195Z,45.50
2022-10-14T08:40:43.046Z,34.90
2022-10-14T08:43:33.610Z,38.70
2022-10-14T08:46:35.609Z,41.63
2022-10-14T08:49:24.499Z,38.35
2022-10-14T08:52:00.659Z,40.80
2022-10-14T08:54:38.380Z,39.35
2022-10-14T08:57:05.765Z,38.85
2022-10-14T08:59:38.113Z,35.65
2022-10-14T09:02:24.702Z,37.42
2022-10-14T09:04:51.391Z,34.35
2022-10-14T09:07:19.676Z,30.48
2022-10-14T09:09:58.840Z,33.60
2022-10-14T09:12:28.436Z,28.17
2022-10-14T09:15:33.941Z,22.17
2022-10-14T09:18:15.828Z,21.55
2022-10-14T09:20:43.287Z,20.38
2022-10-14T09:23:22.787Z,20.35
2022-10-14T09:25:57.915Z,21.73
2022-10-14T09:28:36.903Z,18.50
2022-10-14T09:31:04.608Z,19.58
2022-10-14T09:33:31.314Z,20.10
2022-10-14T09:38:26.536Z,17.35
2022-10-14T09:40:56.916Z,13.70
2022-10-14T09:43:25.071Z,13.90
2022-10-14T09:46:02.318Z,15.13
2022-10-14T09:48:28.804Z,13.68
2022-10-14T09:50:56.715Z,10.57
2022-10-14T09:53:47.133Z,10.50
2022-10-14T09:56:13.841Z,13.00
2022-10-14T09:58:51.383Z,11.60
2022-10-14T10:01:23.546Z,8.70
2022-10-14T10:03:51.951Z,8.38
2022-10-14T10:08:53.050Z,9.45
2022-10-14T10:11:39.483Z,8.27
2022-10-14T10:14:33.158Z,8.02
2022-10-14T10:17:09.673Z,8.98
2022-10-14T10:19:39.040Z,10.05
2022-10-14T10:22:26.681Z,8.38
2022-10-14T10:25:03.467Z,7.38
2022-10-14T10:27:36.111Z,7.70
2022-10-14T10:30:30.345Z,7.90
2022-10-14T10:33:17.106Z,5.85
2022-10-14T10:39:08.280Z,7.18
2022-10-14T10:41:37.868Z,5.78
2022-10-14T10:44:35.094Z,6.57
2022-10-14T10:47:16.417Z,6.45
2022-10-14T10:50:18.729Z,4.97
2022-10-14T10:53:08.103Z,5.20
2022-10-14T10:55:59.647Z,7.25
2022-10-14T10:58:35.587Z,3.90
2022-10-14T11:01:21.429Z,6.30
2022-10-14T11:04:03.350Z,4.43
2022-10-14T11:07:14.706Z,5.45
2022-10-14T11:10:12.109Z,6.13
2022-10-14T11:12:38.635Z,4.60
2022-10-14T11:18:01.253Z,4.65
2022-10-14T11:20:29.690Z,4.68
2022-10-14T11:25:40.258Z,6.78
2022-10-14T11:28:42.650Z,3.88
2022-10-14T11:31:28.719Z,4.30
2022-10-14T11:34:06.051Z,5.18
2022-10-14T11:36:43.104Z,4.18
2022-10-14T11:39:19.255Z,4.28
2022-10-14T11:41:55.145Z,4.90
2022-10-14T11:44:24.803Z,5.05
2022-10-14T11:46:56.538Z,4.18
2022-10-14T11:49:30.767Z,3.38
2022-10-14T11:52:04.282Z,3.85
2022-10-14T11:54:40.417Z,3.20
2022-10-14T11:57:18.713Z,4.07
2022-10-14T12:00:07.680Z,3.67
2022-10-14T12:02:56.119Z,3.50
2022-10-14T12:05:28.503Z,3.17
2022-10-14T12:08:04.151Z,4.43
2022-10-14T12:10:35.507Z,4.47
2022-10-14T12:13:07.809Z,3.90
2022-10-14T12:15:37.333Z,4.80
2022-10-14T12:18:05.427Z,3.70
2022-10-14T12:20:41.240Z,2.42
2022-10-14T12:23:12.840Z,3.40
2022-10-14T12:25:49.234Z,2.92
2022-10-14T12:28:17.296Z,3.70
2022-10-14T12:30:43.937Z,3.58
2022-10-14T12:33:12.653Z,4.47
2022-10-14T12:35:45.457Z,3.10
2022-10-14T12:38:12.733Z,3.25
2022-10-14T12:40:39.949Z,3.97
2022-10-14T12:43:27.260Z,2.70
2022-10-14T12:46:04.053Z,2.70
2022-10-14T12:48:33.701Z,2.15
2022-10-14T12:51:13.255Z,2.03
2022-10-14T12:53:51.771Z,3.05
2022-10-14T12:59:04.581Z,3.05
2022-10-14T13:01:35.328Z,1.88
2022-10-14T13:04:07.310Z,1.95
2022-10-14T13:06:36.033Z,2.15
2022-10-14T13:12:02.440Z,2.55
2022-10-14T13:14:35.525Z,2.08
2022-10-14T13:17:03.400Z,1.67
2022-10-14T13:19:32.940Z,2.13
2022-10-14T13:22:28.502Z,2.17
2022-10-14T13:25:18.927Z,1.73
2022-10-14T13:28:18.669Z,1.50
2022-10-14T13:31:05.530Z,1.40
2022-10-14T13:33:55.317Z,0.80
2022-10-14T13:36:37.455Z,2.15
2022-10-14T13:39:05.109Z,0.90
2022-10-14T13:41:34.605Z,1.00
2022-10-14T13:44:01.659Z,1.30
2022-10-14T13:46:37.203Z,1.33
2022-10-14T13:49:05.899Z,1.70
2022-10-14T13:51:46.417Z,1.25
2022-10-14T13:54:23.490Z,1.83
2022-10-14T13:57:31.529Z,1.05
2022-10-14T14:00:38.091Z,1.23
2022-10-14T14:02:35.088Z,1.08
2022-10-14T14:05:01.959Z,2.25
2022-10-14T14:08:14.635Z,1.50
2022-10-14T14:10:25.687Z,1.83
2022-10-14T14:12:52.850Z,1.15
2022-10-14T14:15:27.548Z,2.15
2022-10-14T14:17:54.556Z,0.90
2022-10-14T14:20:28.177Z,1.50
2022-10-14T14:22:58.049Z,2.65
2022-10-14T14:25:34.594Z,1.98
2022-10-14T14:28:03.352Z,1.13
2022-10-14T14:30:30.889Z,1.33
2022-10-14T14:33:18.683Z,2.90
2022-10-14T14:35:57.111Z,0.82
2022-10-14T14:41:24.659Z,2.88
2022-10-14T14:44:07.636Z,1.20
2022-10-14T14:46:40.400Z,1.45
2022-10-14T14:49:07.956Z,1.77
2022-10-14T14:51:39.385Z,1.17
2022-10-14T14:54:06.464Z,1.50
2022-10-14T14:56:38.473Z,1.38
2022-10-14T14:59:08.953Z,1.65
2022-10-14T15:01:35.491Z,1.33
2022-10-14T15:04:12.313Z,1.73
2022-10-14T15:07:01.447Z,1.00
2022-10-14T15:09:37.222Z,1.83
2022-10-14T15:12:07.151Z,1.20
2022-10-14T15:14:39.390Z,2.25
2022-10-14T15:17:06.520Z,1.65
2022-10-14T15:19:38.115Z,1.80
2022-10-14T15:22:17.160Z,2.40
2022-10-14T15:25:03.973Z,2.22
2022-10-14T15:27:35.384Z,1.40
2022-10-14T15:30:27.038Z,3.10
2022-10-14T15:32:58.022Z,2.05
2022-10-14T15:35:25.247Z,2.40
2022-10-14T15:37:52.137Z,1.90
2022-10-14T15:40:21.441Z,3.38
2022-10-14T15:42:48.808Z,3.13
2022-10-14T15:45:16.083Z,2.38
2022-10-14T15:47:43.172Z,1.95
2022-10-14T15:50:17.087Z,2.40
2022-10-14T15:52:45.436Z,2.33
2022-10-14T15:55:22.813Z,3.58
2022-10-14T15:57:50.437Z,3.65
2022-10-14T16:00:19.083Z,3.83
2022-10-14T16:05:21.078Z,2.80
2022-10-14T16:07:48.518Z,4.15
2022-10-14T16:10:20.311Z,3.90
2022-10-14T16:12:47.011Z,2.60
2022-10-14T16:15:35.904Z,3.75
2022-10-14T16:18:02.481Z,3.28
2022-10-14T16:20:30.769Z,4.75
2022-10-14T16:22:58.564Z,4.05
2022-10-14T16:25:39.880Z,3.38
2022-10-14T16:28:10.067Z,4.10
2022-10-14T16:30:39.634Z,2.42
2022-10-14T16:33:06.661Z,4.20
2022-10-14T16:35:33.644Z,4.13
2022-10-14T16:38:00.201Z,3.97
2022-10-14T16:40:26.773Z,4.65
2022-10-14T16:42:53.570Z,4.43
2022-10-14T16:45:20.149Z,4.47
2022-10-14T16:47:46.761Z,4.13
2022-10-14T16:50:13.475Z,3.67
2022-10-14T16:53:00.928Z,6.15
2022-10-14T16:55:30.938Z,5.15
2022-10-14T16:57:57.592Z,4.22
2022-10-14T17:00:24.192Z,4.18
2022-10-14T17:02:50.805Z,4.38
2022-10-14T17:05:17.588Z,6.90
2022-10-14T17:07:44.135Z,5.22
2022-10-14T17:10:11.101Z,6.57
2022-10-14T17:12:37.999Z,6.70
2022-10-14T17:15:05.757Z,5.13
2022-10-14T17:17:32.792Z,6.37
2022-10-14T17:19:59.414Z,5.93
2022-10-14T17:22:26.131Z,5.43
2022-10-14T17:24:52.703Z,5.90
2022-10-14T17:27:24.216Z,6.10
2022-10-14T17:29:50.987Z,6.15
2022-10-14T17:32:18.223Z,9.40
2022-10-14T17:34:45.093Z,6.90
2022-10-14T17:37:11.734Z,7.43
2022-10-14T17:39:38.537Z,7.60
2022-10-14T17:42:05.150Z,7.47
2022-10-14T17:44:32.767Z,6.63
2022-10-14T17:47:00.685Z,7.07
2022-10-14T17:49:27.366Z,7.22
2022-10-14T17:51:53.954Z,9.25
2022-10-14T17:54:20.560Z,8.32
2022-10-14T17:56:47.117Z,9.30
2022-10-14T17:59:14.314Z,8.27
2022-10-14T18:02:01.598Z,9.10
2022-10-14T18:04:27.811Z,8.77
2022-10-14T18:06:54.463Z,8.85
2022-10-14T18:09:21.267Z,8.43
2022-10-14T18:14:40.698Z,7.63
2022-10-14T18:17:08.059Z,9.35
2022-10-14T18:19:35.096Z,9.45
2022-10-14T18:22:02.714Z,8.93
2022-10-14T18:24:29.377Z,8.60
2022-10-14T18:26:55.921Z,9.75
2022-10-14T18:29:23.688Z,8.88
2022-10-14T18:34:24.880Z,8.50
2022-10-14T18:36:51.465Z,8.68
2022-10-14T18:39:18.051Z,8.25
2022-10-14T18:41:44.899Z,7.32
2022-10-14T18:44:11.908Z,8.27
2022-10-14T18:46:39.437Z,10.15
2022-10-14T18:49:08.306Z,9.18
2022-10-14T18:51:37.417Z,9.25
2022-10-14T18:54:10.215Z,10.15
2022-10-14T18:56:40.076Z,9.70
2022-10-14T18:59:12.810Z,9.23
2022-10-14T19:01:40.268Z,8.88
2022-10-14T19:04:08.686Z,9.48
2022-10-14T19:06:35.669Z,9.45
2022-10-14T19:09:02.902Z,9.73
2022-10-14T19:11:30.836Z,9.10
2022-10-14T19:13:59.507Z,7.97
2022-10-14T19:16:32.134Z,8.90
2022-10-14T19:19:01.103Z,8.10
2022-10-14T19:21:30.444Z,10.00
2022-10-14T19:23:58.170Z,8.98
2022-10-14T19:26:27.348Z,8.60
2022-10-14T19:28:54.144Z,8.77
2022-10-14T19:31:22.801Z,9.82
2022-10-14T19:36:17.457Z,8.18
2022-10-14T19:38:51.158Z,11.43
2022-10-14T19:41:18.502Z,8.10
2022-10-14T19:43:45.112Z,8.70
2022-10-14T19:46:12.477Z,8.05
2022-10-14T19:48:39.413Z,8.73
2022-10-14T19:51:09.333Z,8.77
2022-10-14T19:53:37.507Z,11.27
2022-10-14T19:56:08.387Z,10.68
2022-10-14T19:58:36.769Z,11.40
2022-10-14T20:01:09.585Z,11.02
2022-10-14T20:03:36.527Z,10.45
2022-10-14T20:06:03.790Z,12.60
2022-10-14T20:08:30.383Z,17.27
2022-10-14T20:10:56.972Z,12.32
2022-10-14T20:13:23.524Z,12.02
2022-10-14T20:15:57.575Z,11.98
2022-10-14T20:18:26.296Z,15.23
2022-10-14T20:20:53.064Z,13.68
2022-10-14T20:23:20.299Z,13.90
2022-10-14T20:25:46.852Z,15.23
2022-10-14T20:28:19.418Z,11.20
2022-10-14T20:30:47.336Z,11.95
2022-10-14T20:33:14.159Z,12.15
2022-10-14T20:35:40.813Z,12.20
2022-10-14T20:38:07.417Z,13.05
2022-10-14T20:40:35.582Z,12.80
2022-10-14T20:43:03.353Z,13.18
2022-10-14T20:45:30.158Z,15.27
2022-10-14T20:47:56.758Z,13.75
2022-10-14T20:50:23.326Z,13.18
2022-10-14T20:52:49.905Z,14.38
2022-10-14T20:55:16.568Z,13.93
2022-10-14T20:57:43.155Z,15.98
2022-10-14T21:00:10.340Z,14.88
2022-10-14T21:02:36.961Z,17.65
2022-10-14T21:05:03.830Z,17.25
2022-10-14T21:07:30.369Z,16.50
2022-10-14T21:09:56.955Z,17.38
2022-10-14T21:12:23.792Z,20.95
2022-10-14T21:14:50.581Z,20.88
2022-10-14T21:17:17.152Z,25.65
2022-10-14T21:19:43.747Z,25.63
2022-10-14T21:22:10.287Z,22.05
2022-10-14T21:24:40.718Z,23.20
2022-10-14T21:27:07.671Z,25.83
2022-10-14T21:29:34.352Z,25.60
2022-10-14T21:32:02.609Z,24.73
2022-10-14T21:34:30.214Z,25.67
2022-10-14T21:36:57.100Z,22.77
2022-10-14T21:39:26.548Z,24.85
2022-10-14T21:41:53.147Z,24.00
2022-10-14T21:44:20.853Z,27.63
2022-10-14T21:46:47.920Z,26.07
2022-10-14T21:49:15.148Z,23.38
2022-10-14T21:51:42.128Z,28.70
2022-10-14T21:54:10.958Z,29.15
2022-10-14T21:56:37.528Z,26.52
2022-10-14T21:59:04.416Z,25.15
2022-10-14T22:01:31.114Z,27.10
2022-10-14T22:04:00.439Z,25.67
2022-10-14T22:06:28.040Z,22.85
2022-10-14T22:08:56.911Z,25.08
2022-10-14T22:11:26.651Z,28.10
2022-10-14T22:13:54.436Z,25.40
2022-10-14T22:16:21.107Z,25.50
2022-10-14T22:18:50.641Z,29.02
2022-10-14T22:21:19.440Z,25.55
2022-10-14T22:23:47.552Z,24.50
2022-10-14T22:26:17.163Z,22.02
2022-10-14T22:28:43.989Z,24.08
2022-10-14T22:31:21.241Z,26.45
2022-10-14T22:33:48.811Z,27.05
2022-10-14T22:36:19.529Z,24.35
2022-10-14T22:38:50.073Z,24.92
2022-10-14T22:41:17.467Z,24.98
2022-10-14T22:43:48.810Z,27.35
2022-10-14T22:46:16.799Z,24.38
2022-10-14T22:48:43.323Z,26.05
2022-10-14T22:51:13.283Z,23.35
2022-10-14T22:53:41.076Z,21.15
2022-10-14T22:56:09.826Z,20.92
2022-10-14T22:58:36.696Z,24.08
2022-10-14T23:01:07.908Z,19.35
2022-10-14T23:03:35.179Z,22.02
2022-10-14T23:06:03.170Z,20.05
2022-10-14T23:08:30.687Z,21.90
2022-10-14T23:10:58.694Z,23.17
2022-10-14T23:13:26.069Z,20.35
2022-10-14T23:15:57.224Z,20.23
2022-10-14T23:18:24.331Z,19.50
2022-10-14T23:20:51.196Z,20.65
2022-10-14T23:23:17.862Z,17.17
2022-10-14T23:25:44.450Z,19.90
2022-10-14T23:28:11.024Z,19.23
2022-10-14T23:30:37.559Z,18.45
2022-10-14T23:33:05.039Z,21.98
2022-10-14T23:35:31.933Z,19.38
2022-10-14T23:37:58.527Z,20.85
2022-10-14T23:40:25.083Z,25.60
2022-10-14T23:42:51.609Z,23.92
2022-10-14T23:45:18.188Z,22.10
2022-10-14T23:47:44.724Z,22.05
2022-10-14T23:50:11.293Z,19.75
2022-10-14T23:52:37.875Z,21.02
2022-10-14T23:55:04.753Z,20.48
2022-10-14T23:57:31.344Z,19.70
2022-10-14T23:59:57.935Z,22.05
